Time;durP1;ratioP1;P1;durP2;ratioP2;P2;SDS_P1;SDS_P2;PMS_P1;PMS_P2;Temp;Humidity;BMP_temperature;BMP_pressure;BME280_temperature;BME280_humidity;BME280_pressure;Samples;Min_cycle;Max_cycle;Signal;HPM_P1;HPM_P2
2021/12/18 00:02:23;;;;;;;7.00;5.00;;;6.00;99.90;;;;;;4959334;28;20185;-69
2021/12/18 00:04:48;;;;;;;6.60;5.07;;;6.00;99.90;;;;;;4960512;28;20223;-69
2021/12/18 00:07:17;;;;;;;7.80;5.10;;;5.90;99.90;;;;;;4966965;28;20179;-71
2021/12/18 00:09:48;;;;;;;6.17;4.73;;;5.90;99.90;;;;;;4967851;28;20362;-71
2021/12/18 00:12:19;;;;;;;6.37;4.70;;;5.80;99.90;;;;;;4966260;28;20200;-71
2021/12/18 00:14:44;;;;;;;5.93;4.77;;;5.80;99.90;;;;;;4963991;28;20191;-71
2021/12/18 00:17:10;;;;;;;8.37;5.83;;;5.80;99.90;;;;;;4961247;28;20254;-70
2021/12/18 00:19:36;;;;;;;7.53;5.10;;;5.70;99.90;;;;;;4962772;28;20214;-71
2021/12/18 00:22:02;;;;;;;5.70;4.43;;;5.70;99.90;;;;;;4971688;28;20240;-71
2021/12/18 00:24:28;;;;;;;6.57;4.90;;;5.60;99.90;;;;;;4978321;28;20192;-71
2021/12/18 00:26:56;;;;;;;6.57;5.13;;;5.60;99.90;;;;;;4963780;28;20185;-72
2021/12/18 00:29:21;;;;;;;7.37;4.90;;;5.60;99.90;;;;;;4965376;28;20283;-72
2021/12/18 00:31:51;;;;;;;7.03;5.33;;;5.60;99.90;;;;;;4958908;28;20271;-72
2021/12/18 00:34:17;;;;;;;7.20;5.40;;;5.50;99.90;;;;;;4968469;28;20192;-70
2021/12/18 00:36:43;;;;;;;8.07;5.60;;;5.50;99.90;;;;;;4966594;28;20239;-70
2021/12/18 00:39:08;;;;;;;7.07;5.70;;;5.50;99.90;;;;;;4970363;28;20187;-71
2021/12/18 00:41:59;;;;;;;7.77;6.03;;;5.40;99.90;;;;;;4967029;28;20223;-71
2021/12/18 00:44:22;;;;;;;8.43;5.63;;;5.40;99.90;;;;;;4967679;28;20220;-71
2021/12/18 00:46:47;;;;;;;6.93;5.70;;;5.40;99.90;;;;;;4956491;28;20243;-70
2021/12/18 00:49:19;;;;;;;7.80;5.43;;;5.40;99.90;;;;;;4964699;28;20218;-70
2021/12/18 00:51:46;;;;;;;6.93;5.13;;;5.40;99.90;;;;;;4964829;28;20184;-71
2021/12/18 00:54:12;;;;;;;7.60;5.20;;;5.40;99.90;;;;;;4970517;28;20243;-71
2021/12/18 00:56:40;;;;;;;6.40;4.70;;;5.40;99.90;;;;;;4963589;28;20204;-71
2021/12/18 00:59:05;;;;;;;6.30;4.80;;;5.40;99.90;;;;;;4968966;28;20184;-71
2021/12/18 01:01:35;;;;;;;5.73;4.53;;;5.50;99.90;;;;;;4965746;28;20345;-70
2021/12/18 01:04:03;;;;;;;7.43;5.33;;;5.50;99.90;;;;;;4966360;28;20202;-71
2021/12/18 01:06:34;;;;;;;8.10;4.87;;;5.40;99.90;;;;;;4956068;28;20279;-71
2021/12/18 01:09:01;;;;;;;9.23;5.70;;;5.50;99.90;;;;;;4965993;28;20346;-72
2021/12/18 01:16:42;;;;;;;7.53;5.67;;;5.40;99.90;;;;;;4959365;28;20169;-71
2021/12/18 01:24:39;;;;;;;7.57;4.90;;;5.30;99.90;;;;;;4974953;28;20239;-71
2021/12/18 01:27:04;;;;;;;7.13;4.93;;;5.20;99.90;;;;;;4959503;28;20196;-69
2021/12/18 01:29:30;;;;;;;7.57;5.30;;;5.20;99.90;;;;;;4979046;28;20253;-71
2021/12/18 01:31:58;;;;;;;8.20;5.70;;;5.20;99.90;;;;;;4967091;28;20176;-70
2021/12/18 01:34:26;;;;;;;8.17;5.50;;;5.10;99.90;;;;;;4970957;28;21878;-71
2021/12/18 01:36:51;;;;;;;6.23;5.07;;;5.10;99.90;;;;;;4967335;28;20233;-71
2021/12/18 01:39:19;;;;;;;7.80;5.30;;;5.10;99.90;;;;;;4967170;28;20219;-71
2021/12/18 01:52:21;;;;;;;7.87;5.60;;;5.00;99.90;;;;;;4970718;28;20216;-70
2021/12/18 01:54:47;;;;;;;7.70;5.70;;;5.00;99.90;;;;;;4970929;28;20195;-71
2021/12/18 01:57:15;;;;;;;6.87;5.33;;;5.00;99.90;;;;;;4977803;28;20180;-70
2021/12/18 01:59:48;;;;;;;7.77;5.70;;;4.90;99.90;;;;;;4963898;28;20184;-71
2021/12/18 02:02:15;;;;;;;8.00;6.17;;;4.90;99.90;;;;;;4968851;28;20204;-71
2021/12/18 02:04:41;;;;;;;7.23;5.63;;;4.90;99.90;;;;;;4963902;28;20334;-71
2021/12/18 02:07:09;;;;;;;7.97;6.03;;;4.90;99.90;;;;;;4958643;28;20272;-69
2021/12/18 02:09:54;;;;;;;9.60;6.73;;;4.90;99.90;;;;;;4968826;28;20199;-71
2021/12/18 02:12:32;;;;;;;6.43;5.53;;;4.80;99.90;;;;;;5025131;28;20271;-70
2021/12/18 02:20:40;;;;;;;6.63;5.23;;;4.90;99.90;;;;;;4991834;28;20227;-70
2021/12/18 02:23:11;;;;;;;6.53;5.60;;;4.90;99.90;;;;;;4972034;28;20199;-70
2021/12/18 02:25:37;;;;;;;8.20;5.97;;;4.90;99.90;;;;;;4969157;28;20192;-70
2021/12/18 02:28:07;;;;;;;8.93;6.17;;;4.90;99.90;;;;;;4964570;28;20286;-71
2021/12/18 02:30:34;;;;;;;8.13;6.30;;;5.00;99.90;;;;;;4976870;28;20223;-68
2021/12/18 02:32:59;;;;;;;9.17;6.77;;;5.00;99.90;;;;;;4958831;28;20210;-71
2021/12/18 02:35:39;;;;;;;8.27;6.27;;;5.00;99.90;;;;;;4961689;28;20291;-71
2021/12/18 02:38:14;;;;;;;7.83;6.03;;;5.10;99.90;;;;;;4969520;28;20184;-70
2021/12/18 02:40:56;;;;;;;9.20;6.23;;;5.10;99.90;;;;;;4984289;28;20345;-70
2021/12/18 02:43:34;;;;;;;8.13;5.90;;;5.10;99.90;;;;;;4977389;28;20187;-71
2021/12/18 02:46:06;;;;;;;9.57;6.13;;;5.20;99.90;;;;;;5005611;28;20279;-71
2021/12/18 02:48:37;;;;;;;8.50;6.33;;;5.10;99.90;;;;;;4975778;28;20195;-70
2021/12/18 02:51:08;;;;;;;6.97;5.50;;;5.20;99.90;;;;;;4967170;28;20214;-70
2021/12/18 02:53:35;;;;;;;8.03;5.60;;;5.20;99.90;;;;;;4970636;28;20216;-71
2021/12/18 02:56:04;;;;;;;8.50;5.30;;;5.30;99.90;;;;;;4962579;28;20208;-71
2021/12/18 02:58:35;;;;;;;9.80;6.30;;;5.30;99.90;;;;;;4979826;28;20177;-71
2021/12/18 03:01:01;;;;;;;9.63;6.73;;;5.40;99.90;;;;;;4966135;28;20187;-71
2021/12/18 03:03:32;;;;;;;8.80;6.37;;;5.40;99.90;;;;;;4967849;28;20212;-71
2021/12/18 03:08:51;;;;;;;9.00;6.40;;;5.50;99.90;;;;;;4967552;28;20189;-71
2021/12/18 03:27:22;;;;;;;10.70;7.23;;;5.80;99.90;;;;;;4967088;28;20183;-71
2021/12/18 03:29:49;;;;;;;10.30;7.63;;;5.80;99.90;;;;;;4961760;28;20228;-71
2021/12/18 03:32:21;;;;;;;10.43;7.43;;;5.90;99.90;;;;;;4958349;28;20192;-71
2021/12/18 03:34:47;;;;;;;12.50;8.60;;;6.00;99.90;;;;;;4973413;28;20193;-71
2021/12/18 03:37:13;;;;;;;11.87;8.20;;;6.00;99.90;;;;;;4960056;28;20192;-70
2021/12/18 03:39:39;;;;;;;10.73;7.80;;;6.00;99.90;;;;;;4980839;28;20267;-71
2021/12/18 03:42:08;;;;;;;9.97;7.10;;;6.10;99.90;;;;;;4968422;28;20184;-72
2021/12/18 03:44:35;;;;;;;11.70;8.00;;;6.10;99.90;;;;;;4981752;28;20184;-72
2021/12/18 03:47:01;;;;;;;10.93;7.90;;;6.20;99.90;;;;;;4965275;28;20188;-71
2021/12/18 03:49:29;;;;;;;11.70;8.33;;;6.20;99.90;;;;;;4970468;28;20295;-71
2021/12/18 03:51:57;;;;;;;12.03;7.60;;;6.20;99.90;;;;;;5002395;28;20209;-70
2021/12/18 03:54:25;;;;;;;11.07;8.10;;;6.20;99.90;;;;;;4992437;28;20264;-71
2021/12/18 03:56:51;;;;;;;11.07;7.70;;;6.20;99.90;;;;;;4981746;28;20188;-71
2021/12/18 03:59:17;;;;;;;10.50;7.47;;;6.30;99.90;;;;;;4994815;28;20215;-70
2021/12/18 04:01:43;;;;;;;13.00;9.17;;;6.30;99.90;;;;;;4966731;28;20216;-72
2021/12/18 04:04:08;;;;;;;12.30;8.47;;;6.30;99.90;;;;;;4968424;28;20200;-71
2021/12/18 04:06:37;;;;;;;11.60;7.77;;;6.30;99.90;;;;;;4959139;28;20184;-70
2021/12/18 04:09:03;;;;;;;10.87;7.23;;;6.40;99.90;;;;;;4962678;28;20203;-71
2021/12/18 04:11:29;;;;;;;12.20;8.30;;;6.40;99.90;;;;;;4955843;28;20199;-71
2021/12/18 04:13:55;;;;;;;11.73;8.47;;;6.40;99.90;;;;;;4973245;28;20213;-71
2021/12/18 04:16:21;;;;;;;10.97;8.10;;;6.40;99.90;;;;;;4974624;28;20181;-71
2021/12/18 04:18:47;;;;;;;10.53;7.43;;;6.40;99.90;;;;;;4967444;28;20350;-71
2021/12/18 04:21:13;;;;;;;13.00;9.00;;;6.40;99.90;;;;;;4974023;28;20290;-71
2021/12/18 04:23:41;;;;;;;13.80;9.13;;;6.40;99.90;;;;;;4976386;28;20189;-69
2021/12/18 04:26:06;;;;;;;12.53;8.50;;;6.40;99.90;;;;;;4957526;28;20188;-71
2021/12/18 04:28:32;;;;;;;14.67;9.40;;;6.40;99.90;;;;;;4977869;28;20210;-69
2021/12/18 04:30:58;;;;;;;11.43;8.10;;;6.40;99.90;;;;;;4981827;28;20472;-71
2021/12/18 04:33:23;;;;;;;10.13;7.73;;;6.40;99.90;;;;;;4973613;28;20179;-71
2021/12/18 04:35:52;;;;;;;11.17;7.83;;;6.40;99.90;;;;;;4957612;28;20210;-71
2021/12/18 04:38:19;;;;;;;9.90;7.30;;;6.40;99.90;;;;;;4966378;28;20272;-71
2021/12/18 04:40:45;;;;;;;10.83;7.53;;;6.40;99.90;;;;;;4962101;28;20208;-71
2021/12/18 04:43:13;;;;;;;11.23;7.67;;;6.30;99.90;;;;;;4960903;28;20186;-71
2021/12/18 04:45:41;;;;;;;10.17;7.17;;;6.30;99.90;;;;;;4958992;28;20207;-69
2021/12/18 04:48:06;;;;;;;11.87;7.63;;;6.30;99.90;;;;;;4980138;28;20200;-70
2021/12/18 04:50:34;;;;;;;9.10;6.83;;;6.30;99.90;;;;;;4964704;28;20212;-71
2021/12/18 04:53:00;;;;;;;10.27;7.20;;;6.30;99.90;;;;;;4969615;28;20180;-71
2021/12/18 04:55:28;;;;;;;11.90;7.37;;;6.30;99.90;;;;;;4962161;28;20203;-71
2021/12/18 04:57:55;;;;;;;10.53;7.17;;;6.30;99.90;;;;;;4956478;28;20184;-69
2021/12/18 05:00:29;;;;;;;9.97;6.90;;;6.30;99.90;;;;;;4963415;28;20180;-70
2021/12/18 05:02:55;;;;;;;10.23;6.50;;;6.30;99.90;;;;;;4977738;28;20238;-70
2021/12/18 05:05:20;;;;;;;10.57;7.07;;;6.30;99.90;;;;;;4969742;28;20188;-70
2021/12/18 05:07:49;;;;;;;10.33;7.27;;;6.30;99.90;;;;;;4975957;28;20235;-69
2021/12/18 05:10:15;;;;;;;8.93;6.67;;;6.30;99.90;;;;;;4960976;28;20502;-69
2021/12/18 05:12:41;;;;;;;9.93;6.73;;;6.30;99.90;;;;;;4968655;28;20176;-71
2021/12/18 05:15:09;;;;;;;10.10;6.30;;;6.30;99.90;;;;;;4955620;28;20189;-70
2021/12/18 05:17:37;;;;;;;9.97;6.83;;;6.30;99.90;;;;;;4965826;28;20241;-70
2021/12/18 05:20:03;;;;;;;8.77;6.20;;;6.30;99.90;;;;;;4956364;28;20249;-70
2021/12/18 05:22:29;;;;;;;9.07;5.80;;;6.30;99.90;;;;;;4960859;28;20200;-71
2021/12/18 05:24:54;;;;;;;9.43;6.43;;;6.30;99.90;;;;;;4965462;28;20184;-69
2021/12/18 05:27:25;;;;;;;9.63;6.73;;;6.30;99.90;;;;;;4967691;28;20203;-71
2021/12/18 05:29:52;;;;;;;10.07;6.63;;;6.30;99.90;;;;;;4978254;28;20208;-70
2021/12/18 05:32:20;;;;;;;11.17;6.87;;;6.30;99.90;;;;;;4968397;28;20322;-71
2021/12/18 05:34:46;;;;;;;10.23;6.23;;;6.30;99.90;;;;;;4988720;28;20184;-70
2021/12/18 05:37:19;;;;;;;9.50;5.80;;;6.30;99.90;;;;;;4957351;28;20177;-70
2021/12/18 05:39:46;;;;;;;9.30;6.13;;;6.20;99.90;;;;;;4960366;28;20234;-70
2021/12/18 05:42:12;;;;;;;8.73;6.30;;;6.20;99.90;;;;;;4967547;28;20306;-69
2021/12/18 05:44:37;;;;;;;10.10;7.00;;;6.20;99.90;;;;;;4966288;28;20216;-71
2021/12/18 05:47:11;;;;;;;12.27;7.20;;;6.20;99.90;;;;;;4966613;28;20266;-71
2021/12/18 05:49:36;;;;;;;11.67;7.33;;;6.20;99.90;;;;;;4966516;28;20344;-71
2021/12/18 05:52:04;;;;;;;10.03;6.50;;;6.10;99.90;;;;;;5013888;28;20225;-70
2021/12/18 05:54:34;;;;;;;10.67;6.87;;;6.10;99.90;;;;;;4971839;28;20176;-71
2021/12/18 05:57:04;;;;;;;10.73;6.73;;;6.10;99.90;;;;;;4962318;28;20200;-71
2021/12/18 05:59:30;;;;;;;10.03;6.40;;;6.10;99.90;;;;;;4967653;28;20173;-69
2021/12/18 06:01:56;;;;;;;10.83;6.97;;;6.00;99.90;;;;;;4966365;28;20176;-71
2021/12/18 06:04:21;;;;;;;9.60;6.63;;;6.00;99.90;;;;;;4966671;28;20291;-71
2021/12/18 06:06:47;;;;;;;9.37;6.40;;;6.00;99.90;;;;;;4971261;28;20353;-69
2021/12/18 06:09:15;;;;;;;9.57;6.17;;;6.00;99.90;;;;;;4973292;28;20207;-71
2021/12/18 06:11:41;;;;;;;7.10;5.60;;;6.00;99.90;;;;;;4976885;28;20216;-70
2021/12/18 06:14:07;;;;;;;8.83;5.93;;;6.00;99.90;;;;;;4964378;28;20195;-69
2021/12/18 06:16:33;;;;;;;8.97;5.93;;;6.00;99.90;;;;;;4976410;28;20196;-70
2021/12/18 06:18:59;;;;;;;7.13;5.27;;;6.00;99.90;;;;;;4966548;28;20198;-71
2021/12/18 06:21:24;;;;;;;8.57;6.00;;;5.90;99.90;;;;;;4957419;28;20418;-71
2021/12/18 06:23:54;;;;;;;13.13;8.17;;;5.90;99.90;;;;;;4961317;28;20208;-71
2021/12/18 06:26:21;;;;;;;10.13;6.80;;;5.90;99.90;;;;;;4969081;28;20418;-71
2021/12/18 06:28:50;;;;;;;9.70;6.47;;;5.90;99.90;;;;;;5007813;28;20199;-70
2021/12/18 06:31:15;;;;;;;11.93;7.27;;;5.90;99.90;;;;;;4965163;28;20417;-70
2021/12/18 06:33:41;;;;;;;10.67;6.23;;;5.90;99.90;;;;;;4965142;28;20328;-71
2021/12/18 06:36:09;;;;;;;10.47;6.70;;;5.90;99.90;;;;;;4966479;28;20184;-70
2021/12/18 06:38:34;;;;;;;9.97;6.73;;;5.90;99.90;;;;;;4966635;28;20200;-70
2021/12/18 06:41:00;;;;;;;11.57;6.07;;;5.90;99.90;;;;;;4963986;28;20196;-70
2021/12/18 06:43:25;;;;;;;9.90;6.03;;;5.90;99.90;;;;;;4962804;28;20199;-71
2021/12/18 06:45:51;;;;;;;10.00;6.37;;;5.90;99.90;;;;;;4984205;28;20222;-70
2021/12/18 06:48:17;;;;;;;10.63;6.53;;;6.00;99.90;;;;;;4961483;28;20211;-70
2021/12/18 06:50:42;;;;;;;10.67;6.57;;;6.00;99.90;;;;;;4983517;28;20208;-70
2021/12/18 06:53:08;;;;;;;10.70;6.63;;;6.00;99.90;;;;;;4964743;28;20215;-70
2021/12/18 06:55:36;;;;;;;11.03;7.37;;;6.00;99.90;;;;;;4959388;28;20180;-71
2021/12/18 06:58:06;;;;;;;10.53;7.13;;;6.00;99.90;;;;;;4962462;28;20189;-68
2021/12/18 07:00:32;;;;;;;11.43;6.93;;;6.00;99.90;;;;;;4985939;28;20521;-67
2021/12/18 07:02:57;;;;;;;11.27;6.93;;;6.10;99.90;;;;;;4975768;28;20283;-69
2021/12/18 07:05:25;;;;;;;10.53;7.03;;;6.00;99.90;;;;;;4961454;28;20218;-69
2021/12/18 07:07:55;;;;;;;9.93;6.77;;;6.10;99.90;;;;;;4961090;28;20279;-70
2021/12/18 07:10:21;;;;;;;11.60;7.27;;;6.00;99.90;;;;;;4963630;28;20207;-70
2021/12/18 07:12:49;;;;;;;10.57;6.87;;;6.10;99.90;;;;;;4968796;28;20207;-67
2021/12/18 07:15:16;;;;;;;11.60;7.63;;;6.10;99.90;;;;;;4976540;28;20208;-70
2021/12/18 07:17:42;;;;;;;9.97;6.63;;;6.10;99.90;;;;;;4969404;28;20194;-71
2021/12/18 07:20:09;;;;;;;10.20;6.97;;;6.10;99.90;;;;;;4968491;28;20267;-71
2021/12/18 07:22:36;;;;;;;10.87;6.80;;;6.10;99.90;;;;;;4970476;28;20280;-72
2021/12/18 07:25:02;;;;;;;11.73;6.40;;;6.10;99.90;;;;;;4968576;28;20208;-71
2021/12/18 07:27:28;;;;;;;9.73;7.00;;;6.10;99.90;;;;;;4990843;28;20188;-71
2021/12/18 07:29:53;;;;;;;10.53;6.63;;;6.10;99.90;;;;;;4963462;28;20238;-72
2021/12/18 07:32:19;;;;;;;11.73;7.20;;;6.00;99.90;;;;;;4963837;28;20209;-70
2021/12/18 07:34:47;;;;;;;11.63;7.23;;;6.00;99.90;;;;;;4975957;28;20787;-70
2021/12/18 07:37:12;;;;;;;11.17;6.80;;;6.00;99.90;;;;;;4959168;28;20196;-70
2021/12/18 07:39:38;;;;;;;10.83;6.40;;;5.90;99.90;;;;;;4973670;28;20457;-71
2021/12/18 07:42:07;;;;;;;10.73;6.63;;;5.90;99.90;;;;;;4973326;28;20179;-71
2021/12/18 07:44:32;;;;;;;9.60;5.87;;;5.90;99.90;;;;;;4991531;28;20208;-69
2021/12/18 07:46:58;;;;;;;9.10;6.10;;;5.90;99.90;;;;;;4958740;28;20207;-70
2021/12/18 07:49:23;;;;;;;9.17;5.63;;;5.90;99.90;;;;;;4967047;28;20230;-66
2021/12/18 07:51:49;;;;;;;9.93;5.50;;;5.90;99.90;;;;;;4970683;28;20199;-66
2021/12/18 07:54:15;;;;;;;9.70;5.63;;;6.00;99.90;;;;;;4960685;28;20295;-67
2021/12/18 07:56:40;;;;;;;9.83;6.00;;;6.00;99.90;;;;;;4958581;28;20296;-66
2021/12/18 07:59:09;;;;;;;9.53;5.67;;;6.00;99.90;;;;;;4957151;28;20188;-67
2021/12/18 08:01:34;;;;;;;10.50;6.33;;;6.10;99.90;;;;;;4965167;28;20218;-66
2021/12/18 08:04:02;;;;;;;9.07;5.67;;;6.10;99.90;;;;;;4975642;28;20260;-66
2021/12/18 08:06:28;;;;;;;8.93;6.03;;;6.10;99.90;;;;;;4965216;28;20184;-67
2021/12/18 08:08:54;;;;;;;9.53;6.07;;;6.20;99.90;;;;;;4973668;28;20499;-67
2021/12/18 08:11:19;;;;;;;9.27;5.80;;;6.20;99.90;;;;;;4967793;28;20205;-67
2021/12/18 08:13:47;;;;;;;10.47;6.30;;;6.20;99.90;;;;;;4963716;28;20177;-66
2021/12/18 08:16:15;;;;;;;10.87;6.33;;;6.20;99.90;;;;;;4971943;28;20188;-66
2021/12/18 08:18:41;;;;;;;9.43;5.90;;;6.20;99.90;;;;;;4981151;28;20231;-67
2021/12/18 08:21:06;;;;;;;9.27;6.13;;;6.20;99.90;;;;;;4966624;28;20208;-66
2021/12/18 08:23:32;;;;;;;10.67;6.87;;;6.20;99.90;;;;;;4968371;28;20180;-67
2021/12/18 08:26:00;;;;;;;9.97;5.90;;;6.20;99.90;;;;;;4958442;28;20214;-67
2021/12/18 08:28:28;;;;;;;10.03;6.37;;;6.20;99.90;;;;;;4973645;28;20212;-67
2021/12/18 08:30:54;;;;;;;10.87;6.47;;;6.10;99.90;;;;;;4957134;28;20201;-64
2021/12/18 08:33:19;;;;;;;8.90;5.27;;;6.10;99.90;;;;;;4967187;28;20454;-66
2021/12/18 08:35:45;;;;;;;9.80;6.43;;;6.10;99.90;;;;;;4956277;28;20267;-66
2021/12/18 08:38:11;;;;;;;10.87;6.53;;;6.10;99.90;;;;;;4962719;28;20176;-65
2021/12/18 08:40:39;;;;;;;9.40;6.23;;;6.10;99.90;;;;;;4963354;28;20215;-67
2021/12/18 08:43:07;;;;;;;9.07;5.60;;;6.10;99.90;;;;;;4956850;28;20193;-67
2021/12/18 08:45:33;;;;;;;9.03;5.63;;;6.10;99.90;;;;;;4969747;28;20211;-67
2021/12/18 08:47:59;;;;;;;9.63;6.37;;;6.10;99.90;;;;;;4965371;28;20286;-66
2021/12/18 08:50:25;;;;;;;10.33;5.47;;;6.10;99.90;;;;;;4959375;28;20359;-67
2021/12/18 08:52:53;;;;;;;8.27;5.33;;;6.20;99.90;;;;;;4984183;28;20208;-67
2021/12/18 08:55:21;;;;;;;8.80;5.50;;;6.20;99.90;;;;;;4956169;28;20196;-67
2021/12/18 08:57:47;;;;;;;9.73;5.60;;;6.20;99.90;;;;;;4969766;28;20176;-67
2021/12/18 09:00:16;;;;;;;8.67;5.40;;;6.20;99.90;;;;;;4968210;28;20206;-67
2021/12/18 09:02:44;;;;;;;8.73;4.97;;;6.30;99.90;;;;;;4968232;28;20177;-67
2021/12/18 09:05:10;;;;;;;8.53;5.40;;;6.30;99.90;;;;;;4970583;28;20200;-66
2021/12/18 09:07:38;;;;;;;8.20;5.00;;;6.30;99.90;;;;;;4966044;28;20279;-67
2021/12/18 09:10:07;;;;;;;7.57;4.50;;;6.30;99.90;;;;;;4967311;28;20451;-67
2021/12/18 09:12:32;;;;;;;7.27;4.50;;;6.30;99.90;;;;;;4974900;28;20182;-67
2021/12/18 09:14:58;;;;;;;7.37;4.37;;;6.40;99.90;;;;;;4961867;28;20272;-68
2021/12/18 09:17:28;;;;;;;7.20;4.80;;;6.40;99.90;;;;;;4969521;28;20211;-67
2021/12/18 09:19:53;;;;;;;6.83;4.60;;;6.40;99.90;;;;;;4965431;28;20189;-66
2021/12/18 09:22:22;;;;;;;6.77;4.40;;;6.40;99.90;;;;;;4967526;28;20195;-67
2021/12/18 09:24:48;;;;;;;7.40;4.80;;;6.40;99.90;;;;;;4964205;28;20194;-67
2021/12/18 09:27:15;;;;;;;6.80;4.83;;;6.50;99.90;;;;;;4963165;28;20188;-67
2021/12/18 09:29:41;;;;;;;7.30;4.57;;;6.50;99.90;;;;;;4969977;28;20307;-67
2021/12/18 09:32:09;;;;;;;7.53;4.50;;;6.50;99.90;;;;;;4969947;28;20191;-67
2021/12/18 09:34:37;;;;;;;7.43;4.40;;;6.60;99.90;;;;;;4970853;28;20200;-67
2021/12/18 09:37:05;;;;;;;6.53;4.47;;;6.50;99.90;;;;;;4962627;28;20176;-67
2021/12/18 09:39:31;;;;;;;8.30;4.67;;;6.60;99.90;;;;;;4966163;28;20176;-68
2021/12/18 09:41:59;;;;;;;6.63;4.57;;;6.60;99.90;;;;;;4966972;28;20291;-67
2021/12/18 09:44:27;;;;;;;8.23;4.97;;;6.70;99.90;;;;;;4977962;28;20176;-66
2021/12/18 09:46:54;;;;;;;7.43;4.63;;;6.70;99.90;;;;;;4968292;28;20181;-68
2021/12/18 09:49:20;;;;;;;7.83;4.60;;;6.70;99.90;;;;;;4966025;28;20184;-66
2021/12/18 09:51:46;;;;;;;6.93;4.13;;;6.70;99.90;;;;;;4973123;28;20184;-67
2021/12/18 09:54:12;;;;;;;6.43;4.20;;;6.70;99.90;;;;;;4971365;28;20206;-67
2021/12/18 09:56:40;;;;;;;8.33;4.40;;;6.70;99.90;;;;;;4967503;28;20202;-66
2021/12/18 09:59:06;;;;;;;7.33;4.40;;;6.70;99.90;;;;;;4960541;28;20259;-67
2021/12/18 10:01:33;;;;;;;8.40;4.77;;;6.80;99.90;;;;;;4956129;28;20208;-66
2021/12/18 10:04:05;;;;;;;7.07;4.70;;;6.80;99.90;;;;;;4979773;28;20279;-67
2021/12/18 10:06:38;;;;;;;7.23;4.23;;;6.80;99.90;;;;;;4966872;28;20208;-66
2021/12/18 10:09:08;;;;;;;6.93;4.40;;;6.80;99.90;;;;;;4962899;28;20193;-66
2021/12/18 10:11:42;;;;;;;6.83;4.47;;;6.90;99.90;;;;;;4971573;28;20192;-67
2021/12/18 10:14:08;;;;;;;6.90;4.13;;;6.90;99.90;;;;;;4967635;28;20204;-66
2021/12/18 10:16:43;;;;;;;7.47;4.43;;;6.90;99.90;;;;;;4966523;28;20283;-65
2021/12/18 10:19:26;;;;;;;7.13;4.47;;;6.90;99.90;;;;;;4962507;28;20177;-67
2021/12/18 10:22:06;;;;;;;7.07;4.37;;;7.00;99.90;;;;;;4962877;28;20219;-67
2021/12/18 10:24:35;;;;;;;8.67;4.80;;;7.00;99.90;;;;;;4995297;28;20186;-67
2021/12/18 10:27:15;;;;;;;7.23;4.47;;;7.00;99.90;;;;;;4967190;28;20232;-67
2021/12/18 10:29:41;;;;;;;7.43;4.43;;;7.00;99.90;;;;;;4966587;28;20215;-67
2021/12/18 10:32:16;;;;;;;7.97;5.10;;;7.10;99.90;;;;;;4972494;28;20183;-68
2021/12/18 10:34:48;;;;;;;8.50;4.97;;;7.10;99.90;;;;;;4978061;28;20191;-67
2021/12/18 10:37:29;;;;;;;8.80;5.00;;;7.10;99.90;;;;;;4967201;28;20279;-67
2021/12/18 10:39:56;;;;;;;8.10;4.80;;;7.20;99.90;;;;;;4965368;28;20198;-67
2021/12/18 10:42:46;;;;;;;8.57;5.00;;;7.20;99.90;;;;;;4974018;28;20172;-68
2021/12/18 10:45:19;;;;;;;6.77;4.67;;;7.30;99.90;;;;;;4958494;28;20367;-67
2021/12/18 10:48:03;;;;;;;8.13;4.57;;;7.30;99.90;;;;;;4965421;28;20239;-67
2021/12/18 10:50:45;;;;;;;6.53;4.17;;;7.30;99.90;;;;;;4972847;28;20257;-67
2021/12/18 10:53:23;;;;;;;7.97;4.57;;;7.30;99.90;;;;;;4968747;28;20211;-68
2021/12/18 10:55:59;;;;;;;7.07;4.53;;;7.30;99.90;;;;;;4980497;28;20192;-68
2021/12/18 10:58:26;;;;;;;7.33;4.67;;;7.40;99.90;;;;;;4973031;28;20226;-68
2021/12/18 11:01:09;;;;;;;8.07;4.93;;;7.30;99.90;;;;;;4970240;28;20210;-68
2021/12/18 11:03:38;;;;;;;7.73;4.67;;;7.40;99.90;;;;;;4967065;28;20239;-68
2021/12/18 11:06:24;;;;;;;7.53;4.53;;;7.30;99.90;;;;;;4982495;28;20184;-68
2021/12/18 11:09:13;;;;;;;7.27;4.53;;;7.30;99.90;;;;;;4968158;28;20325;-68
2021/12/18 11:14:23;;;;;;;7.43;4.37;;;7.40;99.90;;;;;;4965927;28;20207;-68
2021/12/18 11:16:55;;;;;;;6.60;4.23;;;7.40;99.90;;;;;;4972131;28;20211;-68
2021/12/18 11:19:23;;;;;;;6.83;4.00;;;7.40;99.90;;;;;;4959312;28;20354;-68
2021/12/18 11:21:55;;;;;;;6.33;4.10;;;7.50;99.90;;;;;;4964470;28;20219;-67
2021/12/18 11:24:31;;;;;;;6.77;4.10;;;7.50;99.90;;;;;;4979046;28;20441;-68
2021/12/18 11:26:57;;;;;;;5.63;3.80;;;7.50;99.90;;;;;;4964598;28;20342;-68
2021/12/18 11:29:27;;;;;;;6.43;3.70;;;7.60;99.90;;;;;;4965898;28;20275;-68
2021/12/18 11:31:56;;;;;;;5.57;3.40;;;7.60;99.90;;;;;;4967830;28;20501;-68
2021/12/18 11:34:22;;;;;;;7.03;4.03;;;7.60;99.90;;;;;;4977757;28;20188;-68
2021/12/18 11:36:50;;;;;;;5.10;3.30;;;7.60;99.90;;;;;;4968652;28;20199;-68
2021/12/18 11:39:19;;;;;;;5.73;3.47;;;7.70;99.90;;;;;;4963066;28;20287;-68
2021/12/18 11:41:52;;;;;;;6.03;3.27;;;7.70;99.90;;;;;;4958018;28;20280;-68
2021/12/18 11:44:27;;;;;;;4.37;3.17;;;7.70;99.90;;;;;;4961139;28;20168;-68
2021/12/18 11:46:56;;;;;;;4.63;3.23;;;7.70;99.90;;;;;;4954741;28;20207;-68
2021/12/18 11:49:25;;;;;;;6.30;3.20;;;7.70;99.90;;;;;;4968087;28;20224;-68
2021/12/18 11:51:59;;;;;;;5.17;3.20;;;7.70;99.90;;;;;;4987845;28;20191;-68
2021/12/18 11:54:44;;;;;;;3.97;2.83;;;7.70;99.90;;;;;;4975542;28;20184;-68
2021/12/18 11:57:14;;;;;;;3.77;2.57;;;7.70;99.90;;;;;;4969026;28;20182;-68
2021/12/18 11:59:44;;;;;;;3.50;2.50;;;7.70;99.90;;;;;;4970490;28;20208;-68
2021/12/18 12:02:12;;;;;;;3.73;2.73;;;7.70;99.90;;;;;;4964719;28;20191;-68
2021/12/18 12:05:02;;;;;;;3.10;2.10;;;7.70;99.90;;;;;;4979416;28;20191;-68
2021/12/18 12:07:28;;;;;;;3.37;2.30;;;7.70;99.90;;;;;;4984811;28;20177;-68
2021/12/18 12:11:15;;;;;;;3.67;2.40;;;7.80;99.90;;;;;;4966707;28;20203;-68
2021/12/18 12:13:16;;;;;;;3.13;2.03;;;7.80;99.90;;;;;;4993536;28;20203;-67
2021/12/18 12:15:52;;;;;;;3.37;2.10;;;7.90;99.90;;;;;;4967853;28;20180;-67
2021/12/18 12:18:18;;;;;;;3.30;2.30;;;7.90;99.90;;;;;;4964879;28;20181;-67
2021/12/18 12:20:47;;;;;;;4.17;2.37;;;7.90;99.90;;;;;;4956375;28;20195;-65
2021/12/18 12:23:14;;;;;;;3.33;2.17;;;7.90;99.90;;;;;;4965578;28;20180;-65
2021/12/18 12:25:40;;;;;;;3.57;2.47;;;7.90;99.90;;;;;;4964848;28;20231;-66
2021/12/18 12:28:18;;;;;;;3.37;2.30;;;7.90;99.90;;;;;;4961630;28;20188;-66
2021/12/18 12:30:45;;;;;;;3.13;2.20;;;7.90;99.90;;;;;;4961056;28;20208;-66
2021/12/18 12:33:23;;;;;;;2.53;1.60;;;7.90;99.90;;;;;;4955399;28;20360;-67
2021/12/18 12:36:13;;;;;;;3.57;2.20;;;8.00;99.90;;;;;;4960276;28;20176;-66
2021/12/18 12:39:01;;;;;;;2.73;2.07;;;8.00;99.90;;;;;;4977033;28;20193;-67
2021/12/18 12:41:50;;;;;;;2.17;1.83;;;8.00;99.90;;;;;;4963627;28;20173;-67
2021/12/18 12:44:38;;;;;;;2.77;1.90;;;8.00;99.90;;;;;;4962474;28;20179;-66
2021/12/18 12:47:27;;;;;;;3.57;2.10;;;8.00;99.90;;;;;;4962412;28;20342;-67
2021/12/18 12:49:59;;;;;;;2.57;2.00;;;8.00;99.90;;;;;;4964327;28;20275;-66
2021/12/18 12:52:31;;;;;;;2.57;1.90;;;8.00;99.90;;;;;;4952590;28;20212;-66
2021/12/18 12:55:07;;;;;;;2.73;2.00;;;8.00;99.90;;;;;;4968520;28;20176;-67
2021/12/18 12:57:50;;;;;;;2.97;2.20;;;8.00;99.90;;;;;;4966991;28;20192;-67
2021/12/18 13:00:21;;;;;;;2.60;2.00;;;8.00;99.90;;;;;;4969446;28;20219;-67
2021/12/18 13:02:52;;;;;;;2.70;2.03;;;8.00;99.90;;;;;;4965895;28;20195;-66
2021/12/18 13:05:24;;;;;;;3.53;2.50;;;8.00;99.90;;;;;;4962341;28;20176;-67
2021/12/18 13:07:53;;;;;;;4.63;2.67;;;8.10;99.90;;;;;;4976241;28;20303;-67
2021/12/18 13:10:22;;;;;;;3.90;2.30;;;8.10;99.90;;;;;;4969249;28;20251;-67
2021/12/18 13:13:10;;;;;;;2.80;2.20;;;8.10;99.90;;;;;;4971526;28;20232;-67
2021/12/18 13:15:46;;;;;;;2.97;2.10;;;8.10;99.90;;;;;;4961036;28;20537;-66
2021/12/18 13:18:12;;;;;;;2.23;1.80;;;8.10;99.90;;;;;;4965790;28;20200;-67
2021/12/18 13:20:47;;;;;;;2.47;1.73;;;8.10;99.90;;;;;;4977911;28;20261;-67
2021/12/18 13:23:18;;;;;;;2.00;1.80;;;8.20;99.90;;;;;;4973671;28;20192;-67
2021/12/18 13:25:52;;;;;;;2.90;1.90;;;8.20;99.90;;;;;;4964639;28;20198;-67
2021/12/18 13:28:22;;;;;;;2.50;1.70;;;8.20;99.90;;;;;;4969313;28;20523;-64
2021/12/18 13:30:51;;;;;;;3.27;2.03;;;8.20;99.90;;;;;;4965413;28;20215;-67
2021/12/18 13:33:23;;;;;;;14.20;9.50;;;8.20;99.90;;;;;;4967907;28;20287;-67
2021/12/18 13:35:55;;;;;;;6.17;3.60;;;8.20;99.90;;;;;;4968031;28;20185;-66
2021/12/18 13:38:22;;;;;;;4.53;2.70;;;8.20;99.90;;;;;;4961772;28;20204;-67
2021/12/18 13:40:49;;;;;;;2.93;2.07;;;8.30;99.90;;;;;;4983930;28;20207;-67
2021/12/18 13:43:18;;;;;;;2.30;1.80;;;8.30;99.90;;;;;;4960480;28;20858;-67
2021/12/18 13:45:52;;;;;;;2.40;2.00;;;8.30;99.90;;;;;;4964737;28;20212;-67
2021/12/18 13:48:23;;;;;;;2.53;1.70;;;8.30;99.90;;;;;;4967064;28;20494;-67
2021/12/18 13:51:01;;;;;;;2.60;1.60;;;8.30;99.90;;;;;;4967012;28;20204;-67
2021/12/18 13:53:27;;;;;;;2.60;1.73;;;8.40;99.90;;;;;;4962547;28;20234;-66
2021/12/18 13:55:57;;;;;;;1.90;1.43;;;8.30;99.90;;;;;;4967320;28;20181;-67